sensor_id;sensor_type;location;lat;lon;timestamp;P1;durP1;ratioP1;P2;durP2;ratioP2
71046;SDS011;58703;48.978;8.982;2023-05-07T00:00:32;4.07;;;1.90;;
71046;SDS011;58703;48.978;8.982;2023-05-07T00:03:00;1.70;;;1.60;;
71046;SDS011;58703;48.978;8.982;2023-05-07T00:05:26;4.00;;;1.80;;
71046;SDS011;58703;48.978;8.982;2023-05-07T00:07:52;2.13;;;1.60;;
71046;SDS011;58703;48.978;8.982;2023-05-07T00:10:18;9.13;;;1.60;;
71046;SDS011;58703;48.978;8.982;2023-05-07T00:12:45;4.03;;;1.73;;
71046;SDS011;58703;48.978;8.982;2023-05-07T00:15:16;1.70;;;1.60;;
71046;SDS011;58703;48.978;8.982;2023-05-07T00:17:43;2.00;;;1.80;;
71046;SDS011;58703;48.978;8.982;2023-05-07T00:20:09;5.70;;;1.83;;
71046;SDS011;58703;48.978;8.982;2023-05-07T00:22:36;3.45;;;1.73;;
71046;SDS011;58703;48.978;8.982;2023-05-07T00:25:03;2.20;;;1.60;;
71046;SDS011;58703;48.978;8.982;2023-05-07T00:27:30;5.20;;;1.60;;
71046;SDS011;58703;48.978;8.982;2023-05-07T00:29:55;2.00;;;1.90;;
71046;SDS011;58703;48.978;8.982;2023-05-07T00:32:21;3.88;;;1.70;;
71046;SDS011;58703;48.978;8.982;2023-05-07T00:34:46;2.83;;;2.27;;
71046;SDS011;58703;48.978;8.982;2023-05-07T00:37:13;3.30;;;1.75;;
71046;SDS011;58703;48.978;8.982;2023-05-07T00:39:40;5.43;;;2.10;;
71046;SDS011;58703;48.978;8.982;2023-05-07T00:42:07;7.00;;;1.95;;
71046;SDS011;58703;48.978;8.982;2023-05-07T00:44:34;3.92;;;1.88;;
71046;SDS011;58703;48.978;8.982;2023-05-07T00:47:01;2.73;;;1.90;;
71046;SDS011;58703;48.978;8.982;2023-05-07T00:49:35;2.75;;;2.35;;
71046;SDS011;58703;48.978;8.982;2023-05-07T00:52:05;2.72;;;1.98;;
71046;SDS011;58703;48.978;8.982;2023-05-07T00:54:34;1.92;;;1.83;;
71046;SDS011;58703;48.978;8.982;2023-05-07T00:56:59;4.03;;;2.00;;
71046;SDS011;58703;48.978;8.982;2023-05-07T00:59:27;6.40;;;2.00;;
71046;SDS011;58703;48.978;8.982;2023-05-07T01:01:52;1.88;;;1.67;;
71046;SDS011;58703;48.978;8.982;2023-05-07T01:04:19;2.10;;;1.90;;
71046;SDS011;58703;48.978;8.982;2023-05-07T01:06:45;6.30;;;3.97;;
71046;SDS011;58703;48.978;8.982;2023-05-07T01:09:11;7.50;;;2.57;;
71046;SDS011;58703;48.978;8.982;2023-05-07T01:11:38;5.18;;;3.22;;
71046;SDS011;58703;48.978;8.982;2023-05-07T01:14:06;5.57;;;3.38;;
71046;SDS011;58703;48.978;8.982;2023-05-07T01:16:33;2.72;;;2.53;;
71046;SDS011;58703;48.978;8.982;2023-05-07T01:19:00;2.53;;;2.00;;
71046;SDS011;58703;48.978;8.982;2023-05-07T01:21:27;2.27;;;1.90;;
71046;SDS011;58703;48.978;8.982;2023-05-07T01:23:58;2.92;;;2.13;;
71046;SDS011;58703;48.978;8.982;2023-05-07T01:26:24;2.28;;;2.08;;
71046;SDS011;58703;48.978;8.982;2023-05-07T01:28:52;2.83;;;1.67;;
71046;SDS011;58703;48.978;8.982;2023-05-07T01:31:17;3.20;;;2.17;;
71046;SDS011;58703;48.978;8.982;2023-05-07T01:33:44;5.20;;;2.30;;
71046;SDS011;58703;48.978;8.982;2023-05-07T01:36:14;2.27;;;2.03;;
71046;SDS011;58703;48.978;8.982;2023-05-07T01:38:42;2.63;;;2.30;;
71046;SDS011;58703;48.978;8.982;2023-05-07T01:41:11;5.93;;;2.88;;
71046;SDS011;58703;48.978;8.982;2023-05-07T01:43:38;2.92;;;2.10;;
71046;SDS011;58703;48.978;8.982;2023-05-07T01:46:08;2.22;;;1.70;;
71046;SDS011;58703;48.978;8.982;2023-05-07T01:48:35;2.00;;;1.73;;
71046;SDS011;58703;48.978;8.982;2023-05-07T01:51:02;2.47;;;1.30;;
71046;SDS011;58703;48.978;8.982;2023-05-07T01:53:29;2.80;;;1.30;;
71046;SDS011;58703;48.978;8.982;2023-05-07T01:56:02;2.30;;;1.87;;
71046;SDS011;58703;48.978;8.982;2023-05-07T01:58:29;2.67;;;2.38;;
71046;SDS011;58703;48.978;8.982;2023-05-07T02:00:56;2.47;;;2.28;;
71046;SDS011;58703;48.978;8.982;2023-05-07T02:03:21;3.17;;;2.55;;
71046;SDS011;58703;48.978;8.982;2023-05-07T02:05:48;4.70;;;2.33;;
71046;SDS011;58703;48.978;8.982;2023-05-07T02:08:15;3.72;;;2.10;;
71046;SDS011;58703;48.978;8.982;2023-05-07T02:10:41;7.50;;;2.30;;
71046;SDS011;58703;48.978;8.982;2023-05-07T02:13:07;3.20;;;2.90;;
71046;SDS011;58703;48.978;8.982;2023-05-07T02:15:33;5.60;;;1.90;;
71046;SDS011;58703;48.978;8.982;2023-05-07T02:18:00;1.83;;;1.67;;
71046;SDS011;58703;48.978;8.982;2023-05-07T02:20:31;7.80;;;2.03;;
71046;SDS011;58703;48.978;8.982;2023-05-07T02:22:57;4.13;;;2.30;;
71046;SDS011;58703;48.978;8.982;2023-05-07T02:25:23;4.90;;;1.97;;
71046;SDS011;58703;48.978;8.982;2023-05-07T02:27:50;2.55;;;1.85;;
71046;SDS011;58703;48.978;8.982;2023-05-07T02:30:15;4.18;;;2.30;;
71046;SDS011;58703;48.978;8.982;2023-05-07T02:32:41;3.03;;;2.00;;
71046;SDS011;58703;48.978;8.982;2023-05-07T02:35:09;6.63;;;2.25;;
71046;SDS011;58703;48.978;8.982;2023-05-07T02:37:36;5.25;;;2.80;;
71046;SDS011;58703;48.978;8.982;2023-05-07T02:40:02;2.43;;;2.17;;
71046;SDS011;58703;48.978;8.982;2023-05-07T02:42:30;2.28;;;1.85;;
71046;SDS011;58703;48.978;8.982;2023-05-07T02:44:57;3.38;;;2.42;;
71046;SDS011;58703;48.978;8.982;2023-05-07T02:47:24;3.60;;;2.03;;
71046;SDS011;58703;48.978;8.982;2023-05-07T02:49:52;2.20;;;1.85;;
71046;SDS011;58703;48.978;8.982;2023-05-07T02:52:20;3.20;;;1.73;;
71046;SDS011;58703;48.978;8.982;2023-05-07T02:54:46;3.15;;;2.20;;
71046;SDS011;58703;48.978;8.982;2023-05-07T02:57:12;2.63;;;2.13;;
71046;SDS011;58703;48.978;8.982;2023-05-07T02:59:38;2.70;;;2.45;;
71046;SDS011;58703;48.978;8.982;2023-05-07T03:02:05;4.90;;;2.27;;
71046;SDS011;58703;48.978;8.982;2023-05-07T03:04:31;4.07;;;2.95;;
71046;SDS011;58703;48.978;8.982;2023-05-07T03:06:57;4.47;;;3.92;;
71046;SDS011;58703;48.978;8.982;2023-05-07T03:09:24;5.77;;;3.17;;
71046;SDS011;58703;48.978;8.982;2023-05-07T03:11:51;3.88;;;2.85;;
71046;SDS011;58703;48.978;8.982;2023-05-07T03:14:16;4.70;;;2.78;;
71046;SDS011;58703;48.978;8.982;2023-05-07T03:16:43;2.53;;;2.27;;
71046;SDS011;58703;48.978;8.982;2023-05-07T03:19:10;3.88;;;2.40;;
71046;SDS011;58703;48.978;8.982;2023-05-07T03:21:37;5.75;;;2.97;;
71046;SDS011;58703;48.978;8.982;2023-05-07T03:24:04;8.07;;;2.70;;
71046;SDS011;58703;48.978;8.982;2023-05-07T03:26:30;3.10;;;2.00;;
71046;SDS011;58703;48.978;8.982;2023-05-07T03:28:57;4.17;;;2.13;;
71046;SDS011;58703;48.978;8.982;2023-05-07T03:31:24;2.33;;;2.13;;
71046;SDS011;58703;48.978;8.982;2023-05-07T03:33:56;2.63;;;2.00;;
71046;SDS011;58703;48.978;8.982;2023-05-07T03:36:22;3.72;;;2.05;;
71046;SDS011;58703;48.978;8.982;2023-05-07T03:38:48;3.10;;;2.30;;
71046;SDS011;58703;48.978;8.982;2023-05-07T03:41:15;4.45;;;2.15;;
71046;SDS011;58703;48.978;8.982;2023-05-07T03:43:41;4.28;;;2.05;;
71046;SDS011;58703;48.978;8.982;2023-05-07T03:46:08;3.80;;;2.00;;
71046;SDS011;58703;48.978;8.982;2023-05-07T03:48:34;2.65;;;2.28;;
71046;SDS011;58703;48.978;8.982;2023-05-07T03:51:00;4.17;;;2.20;;
71046;SDS011;58703;48.978;8.982;2023-05-07T03:53:27;4.68;;;2.40;;
71046;SDS011;58703;48.978;8.982;2023-05-07T03:55:55;3.03;;;2.83;;
71046;SDS011;58703;48.978;8.982;2023-05-07T03:58:20;7.00;;;3.07;;
71046;SDS011;58703;48.978;8.982;2023-05-07T04:00:46;4.75;;;2.78;;
71046;SDS011;58703;48.978;8.982;2023-05-07T04:03:11;4.23;;;3.20;;
71046;SDS011;58703;48.978;8.982;2023-05-07T04:05:39;2.65;;;2.40;;
71046;SDS011;58703;48.978;8.982;2023-05-07T04:08:06;4.88;;;2.33;;
71046;SDS011;58703;48.978;8.982;2023-05-07T04:10:32;3.25;;;1.90;;
71046;SDS011;58703;48.978;8.982;2023-05-07T04:12:59;2.50;;;2.30;;
71046;SDS011;58703;48.978;8.982;2023-05-07T04:15:25;3.45;;;1.85;;
71046;SDS011;58703;48.978;8.982;2023-05-07T04:17:50;3.83;;;2.10;;
71046;SDS011;58703;48.978;8.982;2023-05-07T04:20:16;3.92;;;2.20;;
71046;SDS011;58703;48.978;8.982;2023-05-07T04:22:44;2.37;;;1.40;;
71046;SDS011;58703;48.978;8.982;2023-05-07T04:25:10;2.63;;;1.80;;
71046;SDS011;58703;48.978;8.982;2023-05-07T04:27:37;2.92;;;2.00;;
71046;SDS011;58703;48.978;8.982;2023-05-07T04:30:03;2.80;;;2.08;;
71046;SDS011;58703;48.978;8.982;2023-05-07T04:32:29;3.90;;;2.38;;
71046;SDS011;58703;48.978;8.982;2023-05-07T04:34:55;3.23;;;2.63;;
71046;SDS011;58703;48.978;8.982;2023-05-07T04:37:23;4.25;;;2.50;;
71046;SDS011;58703;48.978;8.982;2023-05-07T04:39:52;3.65;;;2.75;;
71046;SDS011;58703;48.978;8.982;2023-05-07T04:42:18;6.05;;;3.05;;
71046;SDS011;58703;48.978;8.982;2023-05-07T04:44:44;4.80;;;2.80;;
71046;SDS011;58703;48.978;8.982;2023-05-07T04:47:10;3.28;;;2.65;;
71046;SDS011;58703;48.978;8.982;2023-05-07T04:49:37;5.75;;;2.90;;
71046;SDS011;58703;48.978;8.982;2023-05-07T04:52:04;4.70;;;3.33;;
71046;SDS011;58703;48.978;8.982;2023-05-07T04:54:29;4.80;;;2.60;;
71046;SDS011;58703;48.978;8.982;2023-05-07T04:56:55;4.65;;;3.00;;
71046;SDS011;58703;48.978;8.982;2023-05-07T04:59:21;4.63;;;3.07;;
71046;SDS011;58703;48.978;8.982;2023-05-07T05:01:47;4.65;;;2.90;;
71046;SDS011;58703;48.978;8.982;2023-05-07T05:04:14;5.30;;;3.47;;
71046;SDS011;58703;48.978;8.982;2023-05-07T05:06:39;3.47;;;3.17;;
71046;SDS011;58703;48.978;8.982;2023-05-07T05:09:05;5.22;;;2.90;;
71046;SDS011;58703;48.978;8.982;2023-05-07T05:11:31;3.87;;;2.30;;
71046;SDS011;58703;48.978;8.982;2023-05-07T05:13:59;4.75;;;1.92;;
71046;SDS011;58703;48.978;8.982;2023-05-07T05:16:25;3.70;;;2.10;;
71046;SDS011;58703;48.978;8.982;2023-05-07T05:18:51;2.63;;;2.10;;
71046;SDS011;58703;48.978;8.982;2023-05-07T05:21:18;3.83;;;2.15;;
71046;SDS011;58703;48.978;8.982;2023-05-07T05:23:46;3.55;;;2.47;;
71046;SDS011;58703;48.978;8.982;2023-05-07T05:26:11;6.60;;;2.60;;
71046;SDS011;58703;48.978;8.982;2023-05-07T05:28:38;4.00;;;3.03;;
71046;SDS011;58703;48.978;8.982;2023-05-07T05:31:05;9.53;;;3.40;;
71046;SDS011;58703;48.978;8.982;2023-05-07T05:33:32;4.05;;;3.03;;
71046;SDS011;58703;48.978;8.982;2023-05-07T05:35:59;3.92;;;3.55;;
71046;SDS011;58703;48.978;8.982;2023-05-07T05:38:27;3.78;;;3.33;;
71046;SDS011;58703;48.978;8.982;2023-05-07T05:40:53;4.93;;;3.50;;
71046;SDS011;58703;48.978;8.982;2023-05-07T05:43:18;5.78;;;3.88;;
71046;SDS011;58703;48.978;8.982;2023-05-07T05:45:45;5.80;;;3.43;;
71046;SDS011;58703;48.978;8.982;2023-05-07T05:48:12;5.80;;;3.70;;
71046;SDS011;58703;48.978;8.982;2023-05-07T05:50:38;6.93;;;4.82;;
71046;SDS011;58703;48.978;8.982;2023-05-07T05:53:03;9.73;;;5.67;;
71046;SDS011;58703;48.978;8.982;2023-05-07T05:55:30;9.52;;;6.60;;
71046;SDS011;58703;48.978;8.982;2023-05-07T05:57:58;11.40;;;7.20;;
71046;SDS011;58703;48.978;8.982;2023-05-07T06:00:26;8.55;;;4.88;;
71046;SDS011;58703;48.978;8.982;2023-05-07T06:02:53;8.48;;;5.60;;
71046;SDS011;58703;48.978;8.982;2023-05-07T06:05:18;5.30;;;3.97;;
71046;SDS011;58703;48.978;8.982;2023-05-07T06:07:44;3.70;;;3.22;;
71046;SDS011;58703;48.978;8.982;2023-05-07T06:10:10;3.40;;;3.10;;
71046;SDS011;58703;48.978;8.982;2023-05-07T06:12:36;4.43;;;3.08;;
71046;SDS011;58703;48.978;8.982;2023-05-07T06:15:03;4.78;;;3.67;;
71046;SDS011;58703;48.978;8.982;2023-05-07T06:17:31;3.93;;;2.93;;
71046;SDS011;58703;48.978;8.982;2023-05-07T06:19:57;3.53;;;2.50;;
71046;SDS011;58703;48.978;8.982;2023-05-07T06:22:23;3.43;;;3.07;;
71046;SDS011;58703;48.978;8.982;2023-05-07T06:24:49;3.47;;;3.10;;
71046;SDS011;58703;48.978;8.982;2023-05-07T06:27:16;3.97;;;3.03;;
71046;SDS011;58703;48.978;8.982;2023-05-07T06:29:43;3.67;;;3.30;;
71046;SDS011;58703;48.978;8.982;2023-05-07T06:32:09;9.47;;;3.40;;
71046;SDS011;58703;48.978;8.982;2023-05-07T06:34:37;4.78;;;3.30;;
71046;SDS011;58703;48.978;8.982;2023-05-07T06:37:05;3.50;;;3.20;;
71046;SDS011;58703;48.978;8.982;2023-05-07T06:39:30;3.55;;;2.75;;
71046;SDS011;58703;48.978;8.982;2023-05-07T06:41:57;3.13;;;2.50;;
71046;SDS011;58703;48.978;8.982;2023-05-07T06:44:23;3.00;;;2.70;;
71046;SDS011;58703;48.978;8.982;2023-05-07T06:46:49;2.83;;;2.60;;
71046;SDS011;58703;48.978;8.982;2023-05-07T06:49:15;3.13;;;2.53;;
71046;SDS011;58703;48.978;8.982;2023-05-07T06:51:42;3.43;;;2.20;;
71046;SDS011;58703;48.978;8.982;2023-05-07T06:54:07;3.42;;;2.10;;
71046;SDS011;58703;48.978;8.982;2023-05-07T06:56:33;2.70;;;2.00;;
71046;SDS011;58703;48.978;8.982;2023-05-07T06:59:00;2.90;;;2.60;;
71046;SDS011;58703;48.978;8.982;2023-05-07T07:01:27;2.70;;;2.50;;
71046;SDS011;58703;48.978;8.982;2023-05-07T07:03:53;4.22;;;2.50;;
71046;SDS011;58703;48.978;8.982;2023-05-07T07:06:19;3.93;;;2.80;;
71046;SDS011;58703;48.978;8.982;2023-05-07T07:08:45;2.55;;;2.30;;
71046;SDS011;58703;48.978;8.982;2023-05-07T07:11:11;4.00;;;2.30;;
71046;SDS011;58703;48.978;8.982;2023-05-07T07:13:36;2.92;;;2.22;;
71046;SDS011;58703;48.978;8.982;2023-05-07T07:16:02;2.43;;;2.23;;
71046;SDS011;58703;48.978;8.982;2023-05-07T07:18:30;2.38;;;2.10;;
71046;SDS011;58703;48.978;8.982;2023-05-07T07:20:56;3.35;;;2.72;;
71046;SDS011;58703;48.978;8.982;2023-05-07T07:23:22;2.50;;;1.97;;
71046;SDS011;58703;48.978;8.982;2023-05-07T07:25:49;2.75;;;2.25;;
71046;SDS011;58703;48.978;8.982;2023-05-07T07:28:15;2.72;;;2.50;;
71046;SDS011;58703;48.978;8.982;2023-05-07T07:30:41;3.23;;;2.37;;
71046;SDS011;58703;48.978;8.982;2023-05-07T07:33:08;3.03;;;2.10;;
71046;SDS011;58703;48.978;8.982;2023-05-07T07:35:33;5.20;;;2.15;;
71046;SDS011;58703;48.978;8.982;2023-05-07T07:38:01;2.47;;;1.90;;
71046;SDS011;58703;48.978;8.982;2023-05-07T07:40:28;1.80;;;1.70;;
71046;SDS011;58703;48.978;8.982;2023-05-07T07:42:54;3.43;;;1.60;;
71046;SDS011;58703;48.978;8.982;2023-05-07T07:45:21;2.58;;;2.08;;
71046;SDS011;58703;48.978;8.982;2023-05-07T07:47:47;2.38;;;2.22;;
71046;SDS011;58703;48.978;8.982;2023-05-07T07:50:13;2.27;;;2.07;;
71046;SDS011;58703;48.978;8.982;2023-05-07T07:52:40;4.00;;;1.98;;
71046;SDS011;58703;48.978;8.982;2023-05-07T07:55:08;1.63;;;1.52;;
71046;SDS011;58703;48.978;8.982;2023-05-07T07:57:35;2.53;;;1.83;;
71046;SDS011;58703;48.978;8.982;2023-05-07T08:00:01;2.38;;;1.67;;
71046;SDS011;58703;48.978;8.982;2023-05-07T08:02:28;2.22;;;1.70;;
71046;SDS011;58703;48.978;8.982;2023-05-07T08:04:54;3.22;;;1.85;;
71046;SDS011;58703;48.978;8.982;2023-05-07T08:07:22;2.65;;;2.17;;
71046;SDS011;58703;48.978;8.982;2023-05-07T08:09:48;2.50;;;2.23;;
71046;SDS011;58703;48.978;8.982;2023-05-07T08:12:15;3.47;;;2.30;;
71046;SDS011;58703;48.978;8.982;2023-05-07T08:14:42;5.45;;;2.03;;
71046;SDS011;58703;48.978;8.982;2023-05-07T08:17:10;2.60;;;1.83;;
71046;SDS011;58703;48.978;8.982;2023-05-07T08:19:36;1.93;;;1.67;;
71046;SDS011;58703;48.978;8.982;2023-05-07T08:22:04;2.95;;;2.03;;
71046;SDS011;58703;48.978;8.982;2023-05-07T08:24:30;3.80;;;1.88;;
71046;SDS011;58703;48.978;8.982;2023-05-07T08:26:57;2.05;;;1.63;;
71046;SDS011;58703;48.978;8.982;2023-05-07T08:29:23;2.00;;;1.80;;
71046;SDS011;58703;48.978;8.982;2023-05-07T08:31:50;5.10;;;2.00;;
71046;SDS011;58703;48.978;8.982;2023-05-07T08:34:16;1.70;;;1.60;;
71046;SDS011;58703;48.978;8.982;2023-05-07T08:36:42;1.65;;;1.55;;
71046;SDS011;58703;48.978;8.982;2023-05-07T08:39:09;4.33;;;2.00;;
71046;SDS011;58703;48.978;8.982;2023-05-07T08:41:35;1.73;;;1.63;;
71046;SDS011;58703;48.978;8.982;2023-05-07T08:44:02;2.07;;;1.93;;
71046;SDS011;58703;48.978;8.982;2023-05-07T08:46:31;2.55;;;2.33;;
71046;SDS011;58703;48.978;8.982;2023-05-07T08:48:57;3.35;;;2.20;;
71046;SDS011;58703;48.978;8.982;2023-05-07T08:51:25;3.45;;;1.90;;
71046;SDS011;58703;48.978;8.982;2023-05-07T08:53:52;2.53;;;2.10;;
71046;SDS011;58703;48.978;8.982;2023-05-07T08:56:17;2.57;;;2.37;;
71046;SDS011;58703;48.978;8.982;2023-05-07T08:58:45;4.80;;;2.58;;
71046;SDS011;58703;48.978;8.982;2023-05-07T09:01:14;4.53;;;2.50;;
71046;SDS011;58703;48.978;8.982;2023-05-07T09:03:49;4.38;;;2.28;;
71046;SDS011;58703;48.978;8.982;2023-05-07T09:06:20;3.83;;;2.33;;
71046;SDS011;58703;48.978;8.982;2023-05-07T09:08:53;2.30;;;2.10;;
71046;SDS011;58703;48.978;8.982;2023-05-07T09:11:25;2.22;;;1.90;;
71046;SDS011;58703;48.978;8.982;2023-05-07T09:13:53;2.43;;;2.10;;
71046;SDS011;58703;48.978;8.982;2023-05-07T09:16:21;2.03;;;1.83;;
71046;SDS011;58703;48.978;8.982;2023-05-07T09:18:48;3.92;;;2.20;;
71046;SDS011;58703;48.978;8.982;2023-05-07T09:21:18;2.67;;;2.20;;
71046;SDS011;58703;48.978;8.982;2023-05-07T09:23:44;2.67;;;2.20;;
71046;SDS011;58703;48.978;8.982;2023-05-07T09:26:15;2.47;;;2.10;;
71046;SDS011;58703;48.978;8.982;2023-05-07T09:28:42;2.43;;;2.17;;
71046;SDS011;58703;48.978;8.982;2023-05-07T09:31:08;7.80;;;3.83;;
71046;SDS011;58703;48.978;8.982;2023-05-07T09:33:36;3.13;;;2.05;;
71046;SDS011;58703;48.978;8.982;2023-05-07T09:36:06;4.55;;;2.28;;
71046;SDS011;58703;48.978;8.982;2023-05-07T09:38:34;2.30;;;1.80;;
71046;SDS011;58703;48.978;8.982;2023-05-07T09:41:11;2.40;;;1.93;;
71046;SDS011;58703;48.978;8.982;2023-05-07T09:43:42;4.45;;;2.22;;
71046;SDS011;58703;48.978;8.982;2023-05-07T09:46:11;2.40;;;2.20;;
71046;SDS011;58703;48.978;8.982;2023-05-07T09:48:39;2.53;;;1.90;;
71046;SDS011;58703;48.978;8.982;2023-05-07T09:51:34;3.10;;;1.85;;
71046;SDS011;58703;48.978;8.982;2023-05-07T09:54:00;3.23;;;1.80;;
71046;SDS011;58703;48.978;8.982;2023-05-07T09:56:29;2.05;;;1.85;;
71046;SDS011;58703;48.978;8.982;2023-05-07T09:58:57;2.35;;;1.85;;
71046;SDS011;58703;48.978;8.982;2023-05-07T10:01:31;3.67;;;2.03;;
71046;SDS011;58703;48.978;8.982;2023-05-07T10:04:02;2.05;;;1.75;;
71046;SDS011;58703;48.978;8.982;2023-05-07T10:06:34;2.57;;;1.87;;
71046;SDS011;58703;48.978;8.982;2023-05-07T10:09:01;4.55;;;1.80;;
71046;SDS011;58703;48.978;8.982;2023-05-07T10:11:28;4.65;;;2.10;;
71046;SDS011;58703;48.978;8.982;2023-05-07T10:13:54;2.45;;;2.00;;
71046;SDS011;58703;48.978;8.982;2023-05-07T10:16:24;4.10;;;2.00;;
71046;SDS011;58703;48.978;8.982;2023-05-07T10:18:54;3.97;;;1.70;;
71046;SDS011;58703;48.978;8.982;2023-05-07T10:21:21;3.60;;;1.52;;
71046;SDS011;58703;48.978;8.982;2023-05-07T10:23:49;3.17;;;2.17;;
71046;SDS011;58703;48.978;8.982;2023-05-07T10:26:18;3.15;;;2.20;;
71046;SDS011;58703;48.978;8.982;2023-05-07T10:28:49;2.30;;;2.08;;
71046;SDS011;58703;48.978;8.982;2023-05-07T10:34:20;1.98;;;1.83;;
71046;SDS011;58703;48.978;8.982;2023-05-07T10:36:48;3.08;;;1.95;;
71046;SDS011;58703;48.978;8.982;2023-05-07T10:39:15;2.55;;;1.70;;
71046;SDS011;58703;48.978;8.982;2023-05-07T10:41:41;1.50;;;1.20;;
71046;SDS011;58703;48.978;8.982;2023-05-07T10:44:07;2.67;;;1.48;;
71046;SDS011;58703;48.978;8.982;2023-05-07T10:46:34;3.00;;;1.40;;
71046;SDS011;58703;48.978;8.982;2023-05-07T10:49:06;2.08;;;1.40;;
71046;SDS011;58703;48.978;8.982;2023-05-07T10:51:36;2.78;;;1.38;;
71046;SDS011;58703;48.978;8.982;2023-05-07T10:56:41;4.37;;;1.40;;
71046;SDS011;58703;48.978;8.982;2023-05-07T11:02:06;2.30;;;1.27;;
71046;SDS011;58703;48.978;8.982;2023-05-07T11:04:36;2.15;;;1.70;;
71046;SDS011;58703;48.978;8.982;2023-05-07T11:07:21;1.30;;;1.20;;
71046;SDS011;58703;48.978;8.982;2023-05-07T11:15:13;1.70;;;1.30;;
71046;SDS011;58703;48.978;8.982;2023-05-07T11:17:54;2.45;;;1.63;;
71046;SDS011;58703;48.978;8.982;2023-05-07T11:26:06;3.00;;;1.75;;
71046;SDS011;58703;48.978;8.982;2023-05-07T11:28:36;2.08;;;1.48;;
71046;SDS011;58703;48.978;8.982;2023-05-07T11:31:04;3.72;;;1.67;;
71046;SDS011;58703;48.978;8.982;2023-05-07T11:33:30;2.40;;;1.47;;
71046;SDS011;58703;48.978;8.982;2023-05-07T11:36:02;2.30;;;1.20;;
71046;SDS011;58703;48.978;8.982;2023-05-07T11:38:37;2.40;;;1.35;;
71046;SDS011;58703;48.978;8.982;2023-05-07T11:41:04;1.98;;;1.83;;
71046;SDS011;58703;48.978;8.982;2023-05-07T11:43:32;2.17;;;1.98;;
71046;SDS011;58703;48.978;8.982;2023-05-07T11:46:07;2.93;;;1.40;;
71046;SDS011;58703;48.978;8.982;2023-05-07T11:48:41;1.63;;;1.20;;
71046;SDS011;58703;48.978;8.982;2023-05-07T11:51:07;2.40;;;1.50;;
71046;SDS011;58703;48.978;8.982;2023-05-07T11:53:45;1.90;;;1.60;;
71046;SDS011;58703;48.978;8.982;2023-05-07T11:56:13;2.65;;;1.50;;
71046;SDS011;58703;48.978;8.982;2023-05-07T11:58:42;2.70;;;1.57;;
71046;SDS011;58703;48.978;8.982;2023-05-07T12:01:12;1.67;;;1.58;;
71046;SDS011;58703;48.978;8.982;2023-05-07T12:03:42;3.88;;;1.40;;
71046;SDS011;58703;48.978;8.982;2023-05-07T12:06:11;2.83;;;1.40;;
71046;SDS011;58703;48.978;8.982;2023-05-07T12:08:44;2.63;;;1.80;;
71046;SDS011;58703;48.978;8.982;2023-05-07T12:11:12;2.20;;;1.67;;
71046;SDS011;58703;48.978;8.982;2023-05-07T12:13:41;2.33;;;1.58;;
71046;SDS011;58703;48.978;8.982;2023-05-07T12:16:09;1.38;;;1.27;;
71046;SDS011;58703;48.978;8.982;2023-05-07T12:18:36;2.65;;;1.73;;
71046;SDS011;58703;48.978;8.982;2023-05-07T12:21:16;1.75;;;1.35;;
71046;SDS011;58703;48.978;8.982;2023-05-07T12:23:50;1.77;;;1.37;;
71046;SDS011;58703;48.978;8.982;2023-05-07T12:26:15;2.42;;;1.55;;
71046;SDS011;58703;48.978;8.982;2023-05-07T12:28:41;2.33;;;1.50;;
71046;SDS011;58703;48.978;8.982;2023-05-07T12:31:07;2.60;;;1.45;;
71046;SDS011;58703;48.978;8.982;2023-05-07T12:33:34;2.08;;;1.13;;
71046;SDS011;58703;48.978;8.982;2023-05-07T12:36:06;2.30;;;1.40;;
71046;SDS011;58703;48.978;8.982;2023-05-07T12:38:37;2.80;;;1.60;;
71046;SDS011;58703;48.978;8.982;2023-05-07T12:41:09;3.20;;;1.30;;
71046;SDS011;58703;48.978;8.982;2023-05-07T12:43:39;1.88;;;1.77;;
71046;SDS011;58703;48.978;8.982;2023-05-07T12:46:12;1.20;;;1.10;;
71046;SDS011;58703;48.978;8.982;2023-05-07T12:48:43;1.60;;;1.13;;
71046;SDS011;58703;48.978;8.982;2023-05-07T12:51:11;3.03;;;1.10;;
71046;SDS011;58703;48.978;8.982;2023-05-07T12:53:42;1.02;;;1.00;;
71046;SDS011;58703;48.978;8.982;2023-05-07T12:56:09;2.05;;;1.20;;
71046;SDS011;58703;48.978;8.982;2023-05-07T12:58:36;1.58;;;1.20;;
71046;SDS011;58703;48.978;8.982;2023-05-07T13:01:06;2.50;;;1.10;;
71046;SDS011;58703;48.978;8.982;2023-05-07T13:03:33;1.25;;;1.15;;
71046;SDS011;58703;48.978;8.982;2023-05-07T13:06:05;2.00;;;1.58;;
71046;SDS011;58703;48.978;8.982;2023-05-07T13:08:34;1.65;;;1.20;;
71046;SDS011;58703;48.978;8.982;2023-05-07T13:11:07;1.88;;;1.30;;
71046;SDS011;58703;48.978;8.982;2023-05-07T13:13:34;1.50;;;1.17;;
71046;SDS011;58703;48.978;8.982;2023-05-07T13:16:04;2.55;;;1.30;;
71046;SDS011;58703;48.978;8.982;2023-05-07T13:18:32;1.77;;;1.50;;
71046;SDS011;58703;48.978;8.982;2023-05-07T13:20:58;2.72;;;1.60;;
71046;SDS011;58703;48.978;8.982;2023-05-07T13:23:25;2.75;;;1.90;;
71046;SDS011;58703;48.978;8.982;2023-05-07T13:25:52;2.43;;;2.00;;
71046;SDS011;58703;48.978;8.982;2023-05-07T13:28:19;3.38;;;2.00;;
71046;SDS011;58703;48.978;8.982;2023-05-07T13:30:46;4.03;;;2.10;;
71046;SDS011;58703;48.978;8.982;2023-05-07T13:33:13;1.85;;;1.67;;
71046;SDS011;58703;48.978;8.982;2023-05-07T13:35:40;3.95;;;1.40;;
71046;SDS011;58703;48.978;8.982;2023-05-07T13:38:07;2.03;;;1.30;;
71046;SDS011;58703;48.978;8.982;2023-05-07T13:40:36;1.63;;;1.20;;
71046;SDS011;58703;48.978;8.982;2023-05-07T13:43:05;2.03;;;1.30;;
71046;SDS011;58703;48.978;8.982;2023-05-07T13:45:34;1.73;;;1.43;;
71046;SDS011;58703;48.978;8.982;2023-05-07T13:48:00;0.90;;;0.90;;
71046;SDS011;58703;48.978;8.982;2023-05-07T13:50:30;1.13;;;1.10;;
71046;SDS011;58703;48.978;8.982;2023-05-07T13:52:56;5.00;;;1.67;;
71046;SDS011;58703;48.978;8.982;2023-05-07T13:55:23;2.35;;;1.45;;
71046;SDS011;58703;48.978;8.982;2023-05-07T13:57:59;2.70;;;1.70;;
71046;SDS011;58703;48.978;8.982;2023-05-07T14:00:27;3.77;;;1.37;;
71046;SDS011;58703;48.978;8.982;2023-05-07T14:02:53;2.45;;;1.58;;
71046;SDS011;58703;48.978;8.982;2023-05-07T14:05:20;3.13;;;1.70;;
71046;SDS011;58703;48.978;8.982;2023-05-07T14:07:50;1.55;;;1.45;;
71046;SDS011;58703;48.978;8.982;2023-05-07T14:10:19;2.90;;;1.90;;
71046;SDS011;58703;48.978;8.982;2023-05-07T14:12:46;5.13;;;1.90;;
71046;SDS011;58703;48.978;8.982;2023-05-07T14:15:12;5.28;;;2.25;;
71046;SDS011;58703;48.978;8.982;2023-05-07T14:17:38;4.78;;;2.30;;
71046;SDS011;58703;48.978;8.982;2023-05-07T14:20:06;3.88;;;2.15;;
71046;SDS011;58703;48.978;8.982;2023-05-07T14:22:33;3.47;;;2.10;;
71046;SDS011;58703;48.978;8.982;2023-05-07T14:24:59;3.83;;;2.80;;
71046;SDS011;58703;48.978;8.982;2023-05-07T14:27:25;4.47;;;2.58;;
71046;SDS011;58703;48.978;8.982;2023-05-07T14:29:52;3.73;;;2.23;;
71046;SDS011;58703;48.978;8.982;2023-05-07T14:32:17;3.55;;;2.72;;
71046;SDS011;58703;48.978;8.982;2023-05-07T14:34:45;4.50;;;2.40;;
71046;SDS011;58703;48.978;8.982;2023-05-07T14:37:12;6.03;;;2.20;;
71046;SDS011;58703;48.978;8.982;2023-05-07T14:39:38;4.15;;;2.47;;
71046;SDS011;58703;48.978;8.982;2023-05-07T14:42:05;4.18;;;2.83;;
71046;SDS011;58703;48.978;8.982;2023-05-07T14:44:36;3.83;;;2.20;;
71046;SDS011;58703;48.978;8.982;2023-05-07T14:47:01;4.97;;;1.92;;
71046;SDS011;58703;48.978;8.982;2023-05-07T14:49:28;3.80;;;2.20;;
71046;SDS011;58703;48.978;8.982;2023-05-07T14:51:57;4.05;;;2.50;;
71046;SDS011;58703;48.978;8.982;2023-05-07T14:54:25;4.43;;;2.50;;
71046;SDS011;58703;48.978;8.982;2023-05-07T14:56:52;5.78;;;2.72;;
71046;SDS011;58703;48.978;8.982;2023-05-07T14:59:19;5.40;;;2.60;;
71046;SDS011;58703;48.978;8.982;2023-05-07T15:01:48;4.70;;;2.35;;
71046;SDS011;58703;48.978;8.982;2023-05-07T15:04:13;4.93;;;2.40;;
71046;SDS011;58703;48.978;8.982;2023-05-07T15:06:40;4.97;;;2.20;;
71046;SDS011;58703;48.978;8.982;2023-05-07T15:09:06;3.15;;;2.33;;